Time;durP1;ratioP1;P1;durP2;ratioP2;P2;SDS_P1;SDS_P2;PMS_P1;PMS_P2;Temp;Humidity;BMP_temperature;BMP_pressure;BME280_temperature;BME280_humidity;BME280_pressure;Samples;Min_cycle;Max_cycle;Signal;HPM_P1;HPM_P2
2023/06/04 00:02:01;;;;;;;2.80;2.80;;;;;;;-145.94;38.36;77175.56;5115714;28;20185;-70
2023/06/04 00:04:28;;;;;;;3.80;3.00;;;;;;;-145.94;38.69;77175.56;5115929;28;20189;-70
2023/06/04 00:06:55;;;;;;;3.20;3.20;;;;;;;-145.94;38.90;77183.72;5115820;28;20199;-70
2023/06/04 00:09:21;;;;;;;3.57;3.47;;;;;;;-145.94;39.14;77181.69;5115452;28;20710;-70
2023/06/04 00:11:48;;;;;;;4.60;3.17;;;;;;;-145.94;39.56;77191.88;5115411;28;20254;-70
2023/06/04 00:14:15;;;;;;;3.03;2.93;;;;;;;-145.94;39.72;77183.72;5115478;28;20224;-70
2023/06/04 00:16:42;;;;;;;2.83;2.83;;;;;;;-145.94;40.02;77185.75;5115428;28;20227;-71
2023/06/04 00:19:09;;;;;;;3.07;3.07;;;;;;;-145.94;40.74;77189.84;5115267;28;20211;-70
2023/06/04 00:21:35;;;;;;;3.50;3.40;;;;;;;-145.94;41.56;77198.00;5115873;28;20222;-70
2023/06/04 00:24:02;;;;;;;3.53;3.30;;;;;;;-145.94;41.67;77198.00;5115300;28;20185;-70
2023/06/04 00:26:28;;;;;;;3.30;3.20;;;;;;;-145.94;41.88;77200.03;5115205;28;20199;-70
2023/06/04 00:28:55;;;;;;;3.50;3.30;;;;;;;-145.94;42.10;77202.06;5096958;28;20220;-70
2023/06/04 00:31:21;;;;;;;5.60;2.87;;;;;;;-145.94;42.44;77200.03;5096818;28;20212;-70
2023/06/04 00:33:48;;;;;;;2.80;2.80;;;;;;;-145.94;42.98;77202.06;5115479;28;20186;-69
2023/06/04 00:36:14;;;;;;;2.90;2.80;;;;;;;-145.94;42.85;77212.28;5114972;28;20185;-67
2023/06/04 00:38:41;;;;;;;3.40;3.40;;;;;;;-145.94;43.10;77208.19;5115052;28;20201;-67
2023/06/04 00:41:07;;;;;;;3.30;3.20;;;;;;;-145.94;43.95;77212.28;5115776;28;20199;-67
2023/06/04 00:43:35;;;;;;;3.27;2.90;;;;;;;-145.94;43.78;77216.34;5097182;28;20592;-68
2023/06/04 00:46:05;;;;;;;3.30;3.07;;;;;;;-145.94;44.38;77220.44;5115053;28;20260;-67
2023/06/04 00:48:32;;;;;;;3.83;3.57;;;;;;;-145.94;43.98;77212.28;5096683;28;20219;-67
2023/06/04 00:50:58;;;;;;;3.30;3.00;;;;;;;-145.94;44.29;77218.38;5115146;28;20193;-68
2023/06/04 00:53:25;;;;;;;5.50;2.93;;;;;;;-145.94;44.33;77214.31;5096442;28;20716;-67
2023/06/04 00:55:52;;;;;;;2.93;2.90;;;;;;;-145.94;44.95;77222.47;5114749;28;20529;-67
2023/06/04 00:58:20;;;;;;;2.50;2.50;;;;;;;-145.94;45.00;77216.34;5096298;28;20217;-68
2023/06/04 01:00:47;;;;;;;3.20;3.20;;;;;;;-145.94;45.13;77204.13;5114812;28;20708;-67
2023/06/04 01:03:18;;;;;;;3.47;3.10;;;;;;;-145.94;45.18;77214.31;5096241;28;20208;-67
2023/06/04 01:05:53;;;;;;;2.83;2.83;;;;;;;-145.94;45.07;77222.47;5114761;28;20182;-67
2023/06/04 01:08:19;;;;;;;3.90;3.40;;;;;;;-145.94;45.40;77228.59;5114952;28;20204;-67
2023/06/04 01:10:54;;;;;;;6.80;2.60;;;;;;;-145.94;45.45;77230.63;5114597;28;20540;-67
2023/06/04 01:13:20;;;;;;;3.00;3.00;;;;;;;-145.94;45.91;77234.69;5114870;28;20237;-68
2023/06/04 01:15:46;;;;;;;3.50;3.40;;;;;;;-145.94;45.81;77236.75;5114309;28;20189;-67
2023/06/04 01:18:27;;;;;;;2.83;2.73;;;;;;;-145.94;45.93;77242.88;5095949;28;20216;-67
2023/06/04 01:20:59;;;;;;;3.20;3.00;;;;;;;-145.94;45.92;77246.94;5096030;28;20230;-67
2023/06/04 01:23:35;;;;;;;3.53;3.50;;;;;;;-145.94;46.37;77255.09;5114426;28;20615;-68
2023/06/04 01:26:05;;;;;;;3.60;3.40;;;;;;;-145.94;46.12;77259.19;5114682;28;20175;-67
2023/06/04 01:28:34;;;;;;;3.20;3.20;;;;;;;-145.94;46.52;77261.22;5095623;28;20217;-67
2023/06/04 01:31:02;;;;;;;4.47;3.23;;;;;;;-145.94;45.93;77269.38;5114315;28;20189;-67
2023/06/04 01:33:29;;;;;;;3.97;3.70;;;;;;;-145.94;46.08;77267.34;5114003;28;20561;-67
2023/06/04 01:35:56;;;;;;;2.87;2.87;;;;;;;-145.94;46.60;77279.56;5113945;28;20226;-67
2023/06/04 01:38:23;;;;;;;2.90;2.90;;;;;;;-145.94;46.43;77281.59;5113888;28;20212;-67
2023/06/04 01:40:50;;;;;;;3.10;3.10;;;;;;;-145.94;47.02;77289.78;5113880;28;20193;-68
2023/06/04 01:43:17;;;;;;;3.37;3.37;;;;;;;-145.94;46.97;77287.72;5114432;28;20188;-68
2023/06/04 01:45:44;;;;;;;3.27;2.83;;;;;;;-145.94;47.21;77291.81;5113849;28;20196;-68
2023/06/04 01:48:10;;;;;;;3.07;2.97;;;;;;;-145.94;47.42;77291.81;5095468;28;20213;-67
2023/06/04 01:50:36;;;;;;;2.83;2.83;;;;;;;-145.94;47.35;77293.84;5114352;28;20177;-67
2023/06/04 01:53:03;;;;;;;3.60;2.87;;;;;;;-145.94;47.50;77297.94;5113700;28;20562;-67
2023/06/04 01:55:33;;;;;;;3.17;3.17;;;;;;;-145.94;47.68;77304.03;5095473;28;20195;-68
2023/06/04 01:58:00;;;;;;;3.20;3.20;;;;;;;-145.94;47.28;77304.03;5113586;28;20223;-67
2023/06/04 02:00:27;;;;;;;5.33;3.37;;;;;;;-145.94;47.60;77304.03;5095400;28;20719;-67
2023/06/04 02:02:55;;;;;;;2.97;2.63;;;;;;;-145.94;47.66;77306.09;5113649;28;20181;-67
2023/06/04 02:05:22;;;;;;;3.00;3.00;;;;;;;-145.94;47.79;77310.16;5114196;28;20275;-67
2023/06/04 02:07:49;;;;;;;2.93;2.93;;;;;;;-145.94;47.90;77314.25;5113579;28;20191;-67
2023/06/04 02:10:17;;;;;;;2.70;2.70;;;;;;;-145.94;48.26;77324.44;5099514;28;20196;-68
2023/06/04 02:12:59;;;;;;;3.70;3.40;;;;;;;-145.94;48.13;77328.50;5099398;28;20247;-68
2023/06/04 02:15:27;;;;;;;2.70;2.70;;;;;;;-145.94;48.35;77336.69;5118023;28;20651;-68
2023/06/04 02:18:12;;;;;;;3.50;3.50;;;;;;;-145.94;48.44;77346.88;5117620;28;20279;-68
2023/06/04 02:20:39;;;;;;;3.07;3.07;;;;;;;-145.94;48.73;77350.94;5099437;28;20188;-68
2023/06/04 02:23:05;;;;;;;2.80;2.80;;;;;;;-145.94;48.82;77355.03;5117633;28;20189;-68
2023/06/04 02:25:32;;;;;;;3.20;3.20;;;;;;;-145.94;48.53;77361.16;5099332;28;20216;-68
2023/06/04 02:27:58;;;;;;;8.03;3.53;;;;;;;-145.94;49.04;77365.22;5117277;28;20279;-68
2023/06/04 02:30:25;;;;;;;2.87;2.87;;;;;;;-145.94;48.97;77373.38;5117490;28;20244;-67
2023/06/04 02:32:51;;;;;;;2.77;2.77;;;;;;;-145.94;49.39;77379.50;5117366;28;20216;-67
2023/06/04 02:35:20;;;;;;;3.13;3.13;;;;;;;-145.94;48.93;77391.75;5099395;28;20606;-67
2023/06/04 02:37:47;;;;;;;3.37;3.27;;;;;;;-145.94;49.12;77389.69;5099016;28;20212;-67
2023/06/04 02:40:14;;;;;;;3.30;3.20;;;;;;;-145.94;49.18;77401.94;5099326;28;20223;-67
2023/06/04 02:42:40;;;;;;;3.23;2.97;;;;;;;-145.94;49.92;77412.13;5117269;28;20181;-68
2023/06/04 02:45:07;;;;;;;3.10;3.00;;;;;;;-145.94;50.01;77418.25;5117289;28;20234;-68
2023/06/04 02:47:33;;;;;;;3.10;3.10;;;;;;;-145.94;50.08;77428.44;5117205;28;20181;-68
2023/06/04 02:50:00;;;;;;;4.40;3.37;;;;;;;-145.94;50.45;77432.53;5099314;28;20295;-68
2023/06/04 02:52:26;;;;;;;3.40;3.30;;;;;;;-145.94;50.70;77436.59;5117948;28;20200;-68
2023/06/04 02:54:53;;;;;;;2.87;2.87;;;;;;;-145.94;50.70;77438.66;5117036;28;20223;-68
2023/06/04 02:57:19;;;;;;;3.13;2.93;;;;;;;-145.94;50.48;77438.66;5098746;28;20189;-68
2023/06/04 02:59:46;;;;;;;5.37;3.13;;;;;;;-145.94;50.21;77440.69;5117145;28;20211;-68
2023/06/04 03:02:14;;;;;;;3.23;3.13;;;;;;;-145.94;50.47;77450.88;5098665;28;20234;-68
2023/06/04 03:04:42;;;;;;;3.13;3.13;;;;;;;-145.94;50.89;77452.91;5098573;28;20668;-68
2023/06/04 03:07:11;;;;;;;6.83;2.97;;;;;;;-145.94;50.68;77465.16;5116830;28;20591;-68
2023/06/04 03:09:37;;;;;;;3.40;3.30;;;;;;;-145.94;50.91;77475.34;5098422;28;20242;-68
2023/06/04 03:12:04;;;;;;;3.17;3.10;;;;;;;-145.94;50.95;77483.50;5098436;28;20209;-68
2023/06/04 03:14:32;;;;;;;3.70;3.57;;;;;;;-145.94;51.18;77493.72;5116663;28;20185;-69
2023/06/04 03:17:01;;;;;;;3.23;3.23;;;;;;;-145.94;51.68;77499.84;5098325;28;20664;-69
2023/06/04 03:19:27;;;;;;;3.43;3.37;;;;;;;-145.94;51.73;77508.00;5115648;28;20224;-69
2023/06/04 03:21:54;;;;;;;2.93;2.93;;;;;;;-145.94;51.83;77512.06;5116242;28;20184;-69
2023/06/04 03:24:20;;;;;;;2.83;2.83;;;;;;;-145.94;51.75;77518.19;5116478;28;20616;-69
2023/06/04 03:26:47;;;;;;;3.57;3.47;;;;;;;-145.94;51.84;77516.16;5116663;28;20219;-68
2023/06/04 03:29:13;;;;;;;3.70;3.50;;;;;;;-145.94;52.06;77522.25;5098176;28;20303;-68
2023/06/04 03:31:40;;;;;;;3.65;3.65;;;;;;;-145.94;51.95;77522.25;5116565;28;20553;-68
2023/06/04 03:34:08;;;;;;;3.60;3.50;;;;;;;-145.94;52.58;77528.38;5097959;28;20196;-67
2023/06/04 03:36:37;;;;;;;4.10;3.90;;;;;;;-145.94;52.66;77528.38;5116765;28;20192;-67
2023/06/04 03:39:05;;;;;;;3.67;3.57;;;;;;;-145.94;52.72;77538.59;5097771;28;20209;-67
2023/06/04 03:41:31;;;;;;;3.40;3.30;;;;;;;-145.94;52.91;77544.69;5116127;28;20181;-67
2023/06/04 03:43:57;;;;;;;6.10;3.37;;;;;;;-145.94;53.08;77556.94;5097787;28;20560;-67
2023/06/04 03:46:31;;;;;;;4.07;3.97;;;;;;;-145.94;53.52;77558.97;5097691;28;20186;-67
2023/06/04 03:48:58;;;;;;;3.67;3.50;;;;;;;-145.94;53.77;77556.94;5097671;28;20215;-67
2023/06/04 03:51:26;;;;;;;3.80;3.80;;;;;;;-145.94;53.87;77565.09;5097699;28;20201;-67
2023/06/04 03:53:53;;;;;;;5.70;4.00;;;;;;;-145.94;53.74;77567.13;5097613;28;20216;-67
2023/06/04 03:56:21;;;;;;;3.33;3.33;;;;;;;-145.94;53.71;77567.13;5097484;28;20612;-67
2023/06/04 03:58:47;;;;;;;3.50;3.50;;;;;;;-145.94;53.72;77563.06;5097427;28;20683;-67
2023/06/04 04:01:15;;;;;;;3.77;3.73;;;;;;;-145.94;53.48;77567.13;5097620;28;20655;-67
2023/06/04 04:03:42;;;;;;;3.90;3.60;;;;;;;-145.94;53.69;77563.06;5097388;28;20670;-67
2023/06/04 04:06:10;;;;;;;4.07;3.83;;;;;;;-145.94;53.77;77563.06;5097344;28;20192;-68
2023/06/04 04:08:42;;;;;;;3.67;3.37;;;;;;;-145.94;53.73;77558.97;5097458;28;20770;-68
2023/06/04 04:11:08;;;;;;;4.43;4.33;;;;;;;-145.94;54.12;77569.19;5097295;28;20241;-68
2023/06/04 04:13:35;;;;;;;3.67;3.60;;;;;;;-145.94;54.22;77573.25;5115461;28;20571;-68
2023/06/04 04:16:01;;;;;;;5.57;3.70;;;;;;;-145.94;54.63;77565.09;5115434;28;20186;-68
2023/06/04 04:18:28;;;;;;;4.00;3.93;;;;;;;-145.94;54.51;77565.09;5097027;28;20213;-68
2023/06/04 04:20:55;;;;;;;3.23;3.23;;;;;;;-145.94;55.15;77552.84;5097696;28;20189;-68
2023/06/04 04:23:23;;;;;;;3.40;3.40;;;;;;;-145.94;54.83;77548.78;5115323;28;20256;-68
2023/06/04 04:25:49;;;;;;;3.77;3.77;;;;;;;-145.94;54.67;77544.69;5096995;28;20200;-68
2023/06/04 04:28:17;;;;;;;4.03;3.63;;;;;;;-145.94;54.64;77540.63;5096727;28;20220;-67
2023/06/04 04:30:46;;;;;;;3.90;3.60;;;;;;;-145.94;55.01;77530.44;5096572;28;20708;-67
2023/06/04 04:33:17;;;;;;;4.73;3.23;;;;;;;-145.94;55.09;77532.47;5096958;28;20201;-67
2023/06/04 04:35:45;;;;;;;4.03;3.93;;;;;;;-145.94;55.29;77524.31;5097084;28;20188;-67
2023/06/04 04:38:17;;;;;;;4.30;4.20;;;;;;;-145.94;55.09;77516.16;5114931;28;20287;-67
2023/06/04 04:40:48;;;;;;;3.70;3.70;;;;;;;-145.94;55.18;77508.00;5096689;28;20185;-67
2023/06/04 04:43:15;;;;;;;4.30;3.97;;;;;;;-145.94;54.90;77495.75;5114878;28;20184;-67
2023/06/04 04:45:42;;;;;;;3.67;3.67;;;;;;;-145.94;54.87;77485.56;5096625;28;20268;-67
2023/06/04 04:48:10;;;;;;;4.00;3.90;;;;;;;-145.94;54.82;77475.34;5096726;28;20213;-68
2023/06/04 04:50:36;;;;;;;4.40;4.30;;;;;;;-145.94;54.71;77469.25;5114740;28;20182;-68
2023/06/04 04:53:03;;;;;;;3.80;3.77;;;;;;;-145.94;54.60;77463.13;5096408;28;20247;-67
2023/06/04 04:55:31;;;;;;;4.27;4.07;;;;;;;-145.94;54.03;77450.88;5096392;28;20199;-68
2023/06/04 04:57:57;;;;;;;4.23;4.13;;;;;;;-145.94;53.55;77436.59;5096232;28;20184;-67
2023/06/04 05:00:24;;;;;;;4.87;4.50;;;;;;;-145.94;53.07;77424.38;5096367;28;20193;-67
2023/06/04 05:02:53;;;;;;;3.80;3.70;;;;;;;-145.94;52.97;77410.09;5096262;28;20190;-67
2023/06/04 05:05:20;;;;;;;4.00;3.83;;;;;;;-145.94;52.30;77397.84;5096239;28;20267;-66
2023/06/04 05:07:48;;;;;;;4.27;4.17;;;;;;;-145.94;52.77;77397.84;5096126;28;20659;-67
2023/06/04 05:10:17;;;;;;;5.37;5.20;;;;;;;-145.94;52.19;77383.59;5096728;28;20287;-67
2023/06/04 05:12:57;;;;;;;4.37;4.07;;;;;;;-145.94;51.86;77371.34;5096145;28;20205;-67
2023/06/04 05:15:30;;;;;;;4.90;4.50;;;;;;;-145.94;52.26;77369.31;5096359;28;20682;-67
2023/06/04 05:18:00;;;;;;;3.90;3.80;;;;;;;-145.94;52.18;77363.19;5096043;28;20200;-67
2023/06/04 05:20:30;;;;;;;4.27;4.27;;;;;;;-145.94;51.50;77355.03;5095970;28;20214;-67
2023/06/04 05:22:56;;;;;;;4.23;3.53;;;;;;;-145.94;51.20;77353.00;5095923;28;20192;-67
2023/06/04 05:25:23;;;;;;;7.30;4.03;;;;;;;-145.94;51.00;77353.00;5096958;28;20211;-67
2023/06/04 05:27:50;;;;;;;4.27;4.10;;;;;;;-145.94;51.15;77322.41;5095746;28;20636;-67
2023/06/04 05:30:18;;;;;;;4.50;4.23;;;;;;;-145.94;50.77;77326.47;5095727;28;20191;-67
2023/06/04 05:32:45;;;;;;;4.07;4.07;;;;;;;-145.94;50.27;77312.19;5095767;28;20598;-67
2023/06/04 05:35:15;;;;;;;3.87;3.87;;;;;;;-145.94;50.50;77308.13;5095805;28;20729;-66
2023/06/04 05:37:45;;;;;;;4.80;3.53;;;;;;;-145.94;49.95;77297.94;5095656;28;20189;-67
2023/06/04 05:40:14;;;;;;;4.53;4.43;;;;;;;-145.94;50.36;77283.66;5096007;28;20200;-67
2023/06/04 05:42:41;;;;;;;3.97;3.43;;;;;;;-145.94;49.85;77265.28;5095903;28;20181;-67
2023/06/04 05:45:09;;;;;;;4.17;4.03;;;;;;;-145.94;50.00;77251.03;5095671;28;20189;-67
2023/06/04 05:47:36;;;;;;;4.00;3.90;;;;;;;-145.94;49.50;77234.69;5095804;28;20193;-69
2023/06/04 05:50:04;;;;;;;5.43;4.10;;;;;;;-145.94;48.86;77224.50;5095425;28;20216;-70
2023/06/04 05:52:33;;;;;;;6.03;3.70;;;;;;;-145.94;48.15;77214.31;5095466;28;20213;-70
2023/06/04 05:55:00;;;;;;;3.47;3.47;;;;;;;-145.94;47.87;77208.19;5113733;28;20586;-69
2023/06/04 05:57:27;;;;;;;3.30;3.30;;;;;;;-145.94;47.53;77202.06;5095515;28;20543;-69
2023/06/04 05:59:53;;;;;;;3.60;3.50;;;;;;;-145.94;47.04;77185.75;5095429;28;20212;-69
2023/06/04 06:02:20;;;;;;;4.03;3.93;;;;;;;-145.94;46.77;77181.69;5095513;28;20190;-70
2023/06/04 06:04:46;;;;;;;3.47;3.47;;;;;;;-145.94;46.21;77171.47;5095403;28;20193;-70
2023/06/04 06:07:13;;;;;;;3.67;3.67;;;;;;;-145.94;46.89;77159.25;5095428;28;20223;-70
2023/06/04 06:09:39;;;;;;;3.60;3.60;;;;;;;-145.94;45.58;77144.97;5113538;28;20248;-70
2023/06/04 06:12:06;;;;;;;3.20;3.20;;;;;;;-145.94;45.04;77134.78;5113893;28;20192;-70
2023/06/04 06:14:35;;;;;;;3.73;3.63;;;;;;;-145.94;45.01;77114.38;5095376;28;20213;-70
2023/06/04 06:17:02;;;;;;;6.13;3.30;;;;;;;-145.94;44.07;77096.03;5095117;28;20189;-70
2023/06/04 06:19:29;;;;;;;3.53;3.47;;;;;;;-145.94;44.10;77085.84;5095213;28;20642;-70
2023/06/04 06:21:58;;;;;;;4.63;3.40;;;;;;;-145.94;43.17;77083.78;5095512;28;20216;-69
2023/06/04 06:24:26;;;;;;;4.30;3.43;;;;;;;-145.94;43.11;77071.56;5095274;28;20240;-70
2023/06/04 06:26:52;;;;;;;3.37;3.17;;;;;;;-145.94;42.84;77071.56;5096311;28;20196;-70
2023/06/04 06:29:19;;;;;;;2.90;2.90;;;;;;;-145.94;43.00;77051.16;5095283;28;20248;-70
2023/06/04 06:31:47;;;;;;;3.20;3.10;;;;;;;-145.94;42.69;77032.81;5095156;28;20204;-70
2023/06/04 06:34:14;;;;;;;2.80;2.80;;;;;;;-145.94;42.98;77020.56;5113610;28;20574;-70
2023/06/04 06:36:40;;;;;;;3.30;3.30;;;;;;;-145.94;42.20;77008.34;5113649;28;20192;-71
2023/06/04 06:39:06;;;;;;;2.97;2.97;;;;;;;-145.94;41.56;76987.94;5113297;28;20213;-70
2023/06/04 06:41:33;;;;;;;3.60;3.37;;;;;;;-145.94;41.69;76977.75;5113349;28;20716;-70
2023/06/04 06:44:00;;;;;;;3.53;3.53;;;;;;;-145.94;40.73;76965.50;5095076;28;20189;-70
2023/06/04 06:46:26;;;;;;;3.53;3.53;;;;;;;-145.94;40.02;76963.47;5113836;28;20189;-70
2023/06/04 06:48:53;;;;;;;3.90;3.70;;;;;;;-145.94;40.31;76951.25;5113440;28;20612;-70
2023/06/04 06:51:19;;;;;;;3.60;3.50;;;;;;;-145.94;40.84;76936.97;5113513;28;20235;-70
2023/06/04 06:53:46;;;;;;;3.77;3.30;;;;;;;-145.94;41.59;76914.53;5113411;28;20535;-70
2023/06/04 06:56:14;;;;;;;3.57;3.27;;;;;;;-145.94;41.49;76892.09;5116853;28;20190;-70
2023/06/04 06:58:40;;;;;;;3.37;3.17;;;;;;;-145.94;40.85;76881.91;5116937;28;20259;-70
2023/06/04 07:01:06;;;;;;;3.10;3.10;;;;;;;-145.94;39.76;76879.88;5116969;28;20246;-69
2023/06/04 07:03:33;;;;;;;3.53;3.53;;;;;;;-145.94;40.08;76885.97;5117090;28;20611;-70
2023/06/04 07:06:00;;;;;;;8.80;3.27;;;;;;;-145.94;39.59;76869.66;5116839;28;20181;-69
2023/06/04 07:08:26;;;;;;;3.47;3.47;;;;;;;-145.94;39.06;76859.47;5116726;28;20244;-70
2023/06/04 07:10:53;;;;;;;3.33;3.33;;;;;;;-145.94;39.44;76843.16;5116725;28;20189;-71
2023/06/04 07:13:19;;;;;;;2.87;2.87;;;;;;;-145.94;39.32;76859.47;5116683;28;20612;-70
2023/06/04 07:15:46;;;;;;;3.57;3.57;;;;;;;-145.94;39.07;76847.25;5117459;28;20185;-70
2023/06/04 07:18:12;;;;;;;2.87;2.87;;;;;;;-145.94;39.62;76843.16;5117036;28;20205;-70
2023/06/04 07:20:39;;;;;;;3.43;3.20;;;;;;;-145.94;39.62;76839.09;5116577;28;20185;-71
2023/06/04 07:23:06;;;;;;;4.27;3.17;;;;;;;-145.94;39.30;76820.72;5117068;28;20186;-71
2023/06/04 07:25:33;;;;;;;3.40;3.30;;;;;;;-145.94;39.06;76810.53;5116476;28;20659;-71
2023/06/04 07:28:03;;;;;;;3.53;3.40;;;;;;;-145.94;39.34;76794.22;5116415;28;20193;-71
2023/06/04 07:30:31;;;;;;;3.33;3.33;;;;;;;-145.94;38.47;76796.25;5116338;28;20185;-71
2023/06/04 07:32:58;;;;;;;3.40;2.70;;;;;;;-145.94;38.97;76788.09;5116504;28;20223;-71
2023/06/04 07:35:25;;;;;;;3.47;3.27;;;;;;;-145.94;39.04;76784.03;5116509;28;20242;-70
2023/06/04 07:37:51;;;;;;;2.93;2.93;;;;;;;-145.94;38.60;76767.72;5116420;28;20174;-71
2023/06/04 07:40:18;;;;;;;4.23;3.37;;;;;;;-145.94;38.87;76767.72;5116476;28;20219;-72
2023/06/04 07:42:45;;;;;;;3.10;3.10;;;;;;;-145.94;38.53;76771.78;5116427;28;20185;-71
2023/06/04 07:45:12;;;;;;;3.30;3.10;;;;;;;-145.94;38.06;76775.88;5116362;28;20181;-71
2023/06/04 07:47:38;;;;;;;3.33;3.33;;;;;;;-145.94;38.08;76769.75;5116326;28;20234;-71
2023/06/04 07:50:06;;;;;;;3.17;2.50;;;;;;;-145.94;37.75;76761.59;5115933;28;20694;-71
2023/06/04 07:52:32;;;;;;;2.90;2.90;;;;;;;-145.94;38.51;76747.31;5115981;28;20189;-71
2023/06/04 07:55:00;;;;;;;2.83;2.73;;;;;;;-145.94;37.52;76737.13;5115823;28;20205;-71
2023/06/04 07:57:27;;;;;;;2.97;2.77;;;;;;;-145.94;37.66;76722.84;5116193;28;20236;-71
2023/06/04 07:59:53;;;;;;;3.67;3.37;;;;;;;-145.94;37.79;76720.81;5116015;28;20209;-71
2023/06/04 08:02:20;;;;;;;3.17;2.93;;;;;;;-145.94;37.85;76706.53;5116311;28;20535;-71
2023/06/04 08:04:47;;;;;;;3.20;3.20;;;;;;;-145.94;37.56;76684.09;5116028;28;20268;-71
2023/06/04 08:07:13;;;;;;;2.87;2.87;;;;;;;-145.94;37.14;76659.63;5115362;28;20193;-71
2023/06/04 08:09:40;;;;;;;3.67;3.43;;;;;;;-145.94;36.73;76659.63;5115584;28;20213;-72
2023/06/04 08:12:06;;;;;;;3.00;3.00;;;;;;;-145.94;36.77;76651.47;5115604;28;20185;-71
2023/06/04 08:14:36;;;;;;;4.03;3.70;;;;;;;-145.94;36.49;76637.22;5115461;28;20201;-71
2023/06/04 08:17:02;;;;;;;3.43;3.43;;;;;;;-145.94;36.41;76629.06;5110944;28;20720;-71
2023/06/04 08:19:29;;;;;;;3.57;3.57;;;;;;;-145.94;36.29;76614.78;5107534;28;20314;-71
2023/06/04 08:21:55;;;;;;;3.40;3.30;;;;;;;-145.94;35.63;76616.81;5114206;28;20574;-71
2023/06/04 08:24:22;;;;;;;3.20;3.20;;;;;;;-145.94;35.84;76600.50;5115588;28;20646;-71
2023/06/04 08:26:50;;;;;;;3.40;3.30;;;;;;;-145.94;35.47;76600.50;5115225;28;20192;-72
2023/06/04 08:29:16;;;;;;;7.03;3.50;;;;;;;-145.94;35.43;76586.22;5114038;28;20217;-69
2023/06/04 08:31:43;;;;;;;3.37;3.37;;;;;;;-145.94;35.16;76569.91;5113687;28;20185;-71
2023/06/04 08:34:09;;;;;;;3.37;3.37;;;;;;;-145.94;35.18;76574.00;5115011;28;20220;-71
2023/06/04 08:36:36;;;;;;;3.70;3.70;;;;;;;-145.94;34.87;76563.81;5115017;28;20189;-72
2023/06/04 08:39:02;;;;;;;3.73;3.63;;;;;;;-145.94;35.17;76561.75;5115289;28;20718;-71
2023/06/04 08:41:43;;;;;;;4.10;4.10;;;;;;;-145.94;34.82;76549.53;5114931;28;20274;-71
2023/06/04 08:44:10;;;;;;;4.03;3.73;;;;;;;-145.94;35.07;76537.28;5115153;28;20194;-71
2023/06/04 08:46:42;;;;;;;4.30;4.20;;;;;;;-145.94;35.04;76525.06;5114861;28;20185;-71
2023/06/04 08:49:09;;;;;;;7.40;4.70;;;;;;;-145.94;34.44;76516.91;5115037;28;20253;-71
2023/06/04 08:51:37;;;;;;;4.73;4.63;;;;;;;-145.94;34.91;76506.72;5115038;28;20193;-71
2023/06/04 08:54:08;;;;;;;4.97;4.23;;;;;;;-145.94;34.99;76496.50;5114707;28;20205;-72
2023/06/04 08:56:35;;;;;;;4.63;4.53;;;;;;;-145.94;34.26;76484.28;5079714;28;20193;-71
2023/06/04 08:59:07;;;;;;;5.67;5.23;;;;;;;-145.94;32.91;76488.34;5114590;28;20216;-71
2023/06/04 09:01:36;;;;;;;10.13;5.30;;;;;;;-145.94;32.90;76470.00;5114855;28;20174;-71
2023/06/04 09:04:05;;;;;;;4.70;4.60;;;;;;;-145.94;32.41;76459.81;5115364;28;20568;-71
2023/06/04 09:06:35;;;;;;;6.80;5.07;;;;;;;-145.94;32.00;76453.69;5114782;28;20256;-71
2023/06/04 09:09:07;;;;;;;5.43;4.97;;;;;;;-145.94;32.54;76441.47;5114347;28;20212;-71
2023/06/04 09:11:35;;;;;;;5.40;5.40;;;;;;;-145.94;31.23;76447.56;5114678;28;20173;-71
2023/06/04 09:14:06;;;;;;;5.20;4.90;;;;;;;-145.94;31.39;76445.53;5114212;28;20628;-71
2023/06/04 09:16:51;;;;;;;4.80;4.60;;;;;;;-145.94;32.07;76443.50;5114625;28;20620;-71
2023/06/04 09:19:18;;;;;;;5.67;5.67;;;;;;;-145.94;30.32;76445.53;5096504;28;20743;-71
2023/06/04 09:21:52;;;;;;;6.13;4.63;;;;;;;-145.94;30.98;76431.28;5114494;28;20536;-71
2023/06/04 09:24:20;;;;;;;5.03;4.70;;;;;;;-145.94;31.04;76410.88;5114426;28;20166;-71
2023/06/04 09:26:48;;;;;;;5.80;5.60;;;;;;;-145.94;30.53;76402.72;5114089;28;20185;-71
2023/06/04 09:29:15;;;;;;;5.37;5.00;;;;;;;-145.94;30.74;76388.44;5113986;28;20213;-71
2023/06/04 09:31:57;;;;;;;4.77;4.63;;;;;;;-145.94;29.98;76370.09;5114031;28;20196;-70
2023/06/04 09:34:28;;;;;;;4.20;4.20;;;;;;;-145.94;29.13;76370.09;5114176;28;20697;-71
2023/06/04 09:36:56;;;;;;;4.70;4.40;;;;;;;-145.94;29.20;76355.81;5114571;28;20242;-72
2023/06/04 09:39:26;;;;;;;4.40;4.20;;;;;;;-145.94;28.64;76361.94;5114194;28;20219;-71
2023/06/04 09:42:00;;;;;;;3.83;3.73;;;;;;;-145.94;29.10;76361.94;5114255;28;20580;-71
2023/06/04 09:44:28;;;;;;;3.40;3.20;;;;;;;-145.94;28.19;76355.81;5114513;28;20162;-71
2023/06/04 09:46:56;;;;;;;3.60;3.50;;;;;;;-145.94;28.63;76351.75;5114483;28;20604;-71
2023/06/04 09:49:23;;;;;;;4.13;3.93;;;;;;;-145.94;28.93;76363.97;5113813;28;20209;-72
2023/06/04 09:51:50;;;;;;;14.97;3.53;;;;;;;-145.94;29.78;76361.94;5113787;28;20200;-73
2023/06/04 09:54:16;;;;;;;3.97;3.67;;;;;;;-145.94;29.26;76355.81;5114014;28;20208;-71
2023/06/04 09:56:43;;;;;;;3.90;3.90;;;;;;;-145.94;28.67;76339.50;5095630;28;20172;-71
2023/06/04 09:59:09;;;;;;;4.47;4.20;;;;;;;-145.94;28.64;76339.50;5113742;28;20258;-71
2023/06/04 10:01:42;;;;;;;3.90;3.73;;;;;;;-145.94;29.06;76353.78;5114250;28;20226;-72
2023/06/04 10:04:13;;;;;;;4.00;4.00;;;;;;;-145.94;29.38;76347.66;5113982;28;20169;-71
2023/06/04 10:06:41;;;;;;;3.77;3.63;;;;;;;-145.94;29.33;76341.56;5114422;28;20181;-71
2023/06/04 10:09:09;;;;;;;6.47;3.57;;;;;;;-145.94;28.87;76335.44;5114415;28;20559;-72
2023/06/04 10:11:43;;;;;;;3.77;3.67;;;;;;;-145.94;28.03;76335.44;5114424;28;20185;-71
2023/06/04 10:14:22;;;;;;;3.10;3.10;;;;;;;-145.94;28.61;76339.50;5114079;28;20188;-72
2023/06/04 10:16:50;;;;;;;4.63;3.87;;;;;;;-145.94;27.48;76345.63;5114379;28;20197;-71
2023/06/04 10:19:18;;;;;;;3.20;3.13;;;;;;;-145.94;28.64;76341.56;5114106;28;20205;-71
2023/06/04 10:21:45;;;;;;;4.33;3.33;;;;;;;-145.94;27.16;76325.25;5113658;28;20185;-72
2023/06/04 10:24:14;;;;;;;3.73;3.53;;;;;;;-145.94;27.53;76331.34;5113667;28;20181;-71
2023/06/04 10:26:42;;;;;;;6.53;3.80;;;;;;;-145.94;27.05;76323.19;5114159;28;20189;-71
2023/06/04 10:29:11;;;;;;;3.63;3.40;;;;;;;-145.94;27.74;76327.28;5114117;28;20262;-71
2023/06/04 10:31:38;;;;;;;6.60;4.03;;;;;;;-145.94;27.78;76315.03;5117838;28;20185;-71
2023/06/04 10:34:05;;;;;;;4.37;4.13;;;;;;;-145.94;28.51;76317.09;5117521;28;20235;-71
2023/06/04 10:36:31;;;;;;;4.37;3.87;;;;;;;-145.94;28.10;76310.97;5117752;28;20234;-71
2023/06/04 10:38:58;;;;;;;3.97;3.73;;;;;;;-145.94;27.82;76313.00;5117378;28;20385;-71
2023/06/04 10:41:25;;;;;;;4.70;4.43;;;;;;;-145.94;27.96;76313.00;5117936;28;20226;-72
2023/06/04 10:44:00;;;;;;;5.93;4.40;;;;;;;-145.94;28.43;76296.69;5117307;28;20643;-72
2023/06/04 10:46:39;;;;;;;4.50;4.17;;;;;;;-145.94;28.29;76276.31;5117444;28;20173;-72
2023/06/04 10:49:06;;;;;;;4.40;4.30;;;;;;;-145.94;27.22;76272.22;5117449;28;20690;-72
2023/06/04 10:51:33;;;;;;;4.33;3.93;;;;;;;-145.94;27.95;76260.00;5117510;28;20536;-72
2023/06/04 10:54:01;;;;;;;4.43;4.33;;;;;;;-145.94;27.95;76270.19;5117927;28;20201;-71
2023/06/04 10:56:34;;;;;;;6.10;3.80;;;;;;;-145.94;27.70;76257.97;5117244;28;20181;-72
2023/06/04 10:59:13;;;;;;;5.80;4.07;;;;;;;-145.94;28.07;76255.91;5117405;28;20205;-72
2023/06/04 11:01:40;;;;;;;4.10;4.00;;;;;;;-145.94;27.51;76260.00;5117359;28;20165;-72
2023/06/04 11:04:07;;;;;;;4.00;4.00;;;;;;;-145.94;28.35;76266.13;5117415;28;20188;-72
2023/06/04 11:06:35;;;;;;;3.83;3.50;;;;;;;-145.94;27.09;76288.53;5117885;28;20239;-72
2023/06/04 11:09:05;;;;;;;4.10;3.90;;;;;;;-145.94;27.22;76270.19;5116822;28;20219;-71
2023/06/04 11:11:32;;;;;;;4.27;4.27;;;;;;;-145.94;26.86;76278.34;5117445;28;20256;-70
2023/06/04 11:14:10;;;;;;;3.20;3.20;;;;;;;-145.94;27.17;76262.03;5117262;28;20201;-71
2023/06/04 11:16:36;;;;;;;4.30;4.20;;;;;;;-145.94;27.45;76255.91;5117258;28;20184;-72
2023/06/04 11:19:03;;;;;;;3.87;3.87;;;;;;;-145.94;27.11;76255.91;5117017;28;20266;-71
2023/06/04 11:21:30;;;;;;;3.57;3.57;;;;;;;-145.94;27.17;76237.56;5117348;28;20681;-70